Lily Lake, Illinois
Current Conditions -  °F | °C
As of 8:10 AM on Saturday 22 Nov 2014 (Local Time) from KDPA Reporting Station
Haze Haze  
Wind Chill: 30°   Ceiling: 300
Heat Index: 37°   Visibility: 1mi
Dew Point: 36°   Wind: 10mph
Humidity: 96%   Direction: 190°S
Pressure: 30.01"   Gusts: NA
Location:  41.9502°N, 88.389°W
Report Text: KDPA 221410Z 19009KT 1SM BR OVC003 03/02 A3001 RMK AO2 T00280022 RVRNO
Loading
Personal Weather Stations






























Interactive Weather Map New forecast layout! Learn more

10-Day Weather Forecast

Advertisements
Track Severe Weather on mobile